sensor_id;sensor_type;location;lat;lon;timestamp;temperature;humidity
68719;DHT22;55696;52.138;5.444;2023-04-06T00:00:52;7.90;61.50
68719;DHT22;55696;52.138;5.444;2023-04-06T00:03:19;7.90;61.70
68719;DHT22;55696;52.138;5.444;2023-04-06T00:05:47;7.80;62.10
68719;DHT22;55696;52.138;5.444;2023-04-06T00:08:14;7.80;63.30
68719;DHT22;55696;52.138;5.444;2023-04-06T00:10:41;7.80;62.30
68719;DHT22;55696;52.138;5.444;2023-04-06T00:13:08;7.80;62.50
68719;DHT22;55696;52.138;5.444;2023-04-06T00:15:34;7.80;62.70
68719;DHT22;55696;52.138;5.444;2023-04-06T00:18:02;7.70;62.20
68719;DHT22;55696;52.138;5.444;2023-04-06T00:20:29;7.70;63.00
68719;DHT22;55696;52.138;5.444;2023-04-06T00:22:56;7.70;62.50
68719;DHT22;55696;52.138;5.444;2023-04-06T00:25:23;7.60;62.60
68719;DHT22;55696;52.138;5.444;2023-04-06T00:27:49;7.60;62.60
68719;DHT22;55696;52.138;5.444;2023-04-06T00:30:16;7.60;62.70
68719;DHT22;55696;52.138;5.444;2023-04-06T00:32:43;8.30;63.20
68719;DHT22;55696;52.138;5.444;2023-04-06T00:35:10;7.50;62.70
68719;DHT22;55696;52.138;5.444;2023-04-06T00:37:37;7.60;62.70
68719;DHT22;55696;52.138;5.444;2023-04-06T00:40:04;7.50;62.70
68719;DHT22;55696;52.138;5.444;2023-04-06T00:42:31;7.50;63.30
68719;DHT22;55696;52.138;5.444;2023-04-06T00:44:59;7.50;63.00
68719;DHT22;55696;52.138;5.444;2023-04-06T00:47:26;7.50;63.70
68719;DHT22;55696;52.138;5.444;2023-04-06T00:49:54;7.50;63.00
68719;DHT22;55696;52.138;5.444;2023-04-06T00:52:21;7.50;64.00
68719;DHT22;55696;52.138;5.444;2023-04-06T00:54:49;7.40;64.10
68719;DHT22;55696;52.138;5.444;2023-04-06T00:57:18;7.40;63.80
68719;DHT22;55696;52.138;5.444;2023-04-06T00:59:47;7.40;64.00
68719;DHT22;55696;52.138;5.444;2023-04-06T01:02:14;7.40;64.10
68719;DHT22;55696;52.138;5.444;2023-04-06T01:04:46;7.50;63.70
68719;DHT22;55696;52.138;5.444;2023-04-06T01:07:26;7.40;63.70
68719;DHT22;55696;52.138;5.444;2023-04-06T01:10:04;7.50;64.00
68719;DHT22;55696;52.138;5.444;2023-04-06T01:12:32;7.50;64.50
68719;DHT22;55696;52.138;5.444;2023-04-06T01:15:04;7.40;64.30
68719;DHT22;55696;52.138;5.444;2023-04-06T01:17:33;7.40;65.10
68719;DHT22;55696;52.138;5.444;2023-04-06T01:20:07;7.40;64.60
68719;DHT22;55696;52.138;5.444;2023-04-06T01:22:34;7.40;64.70
68719;DHT22;55696;52.138;5.444;2023-04-06T01:25:03;7.40;64.70
68719;DHT22;55696;52.138;5.444;2023-04-06T01:27:45;7.50;64.70
68719;DHT22;55696;52.138;5.444;2023-04-06T01:30:20;7.40;64.40
68719;DHT22;55696;52.138;5.444;2023-04-06T01:32:51;7.50;64.50
68719;DHT22;55696;52.138;5.444;2023-04-06T01:35:35;8.50;64.80
68719;DHT22;55696;52.138;5.444;2023-04-06T01:38:12;7.50;64.10
68719;DHT22;55696;52.138;5.444;2023-04-06T01:40:39;7.50;64.20
68719;DHT22;55696;52.138;5.444;2023-04-06T01:43:06;7.60;64.40
68719;DHT22;55696;52.138;5.444;2023-04-06T01:45:41;8.10;64.30
68719;DHT22;55696;52.138;5.444;2023-04-06T01:48:14;7.60;64.10
68719;DHT22;55696;52.138;5.444;2023-04-06T01:50:41;7.60;64.00
68719;DHT22;55696;52.138;5.444;2023-04-06T01:53:10;7.60;63.90
68719;DHT22;55696;52.138;5.444;2023-04-06T01:55:38;7.70;63.90
68719;DHT22;55696;52.138;5.444;2023-04-06T01:58:17;7.80;63.90
68719;DHT22;55696;52.138;5.444;2023-04-06T02:00:44;7.80;64.50
68719;DHT22;55696;52.138;5.444;2023-04-06T02:03:11;7.90;63.70
68719;DHT22;55696;52.138;5.444;2023-04-06T02:05:38;7.80;63.60
68719;DHT22;55696;52.138;5.444;2023-04-06T02:08:17;7.90;63.20
68719;DHT22;55696;52.138;5.444;2023-04-06T02:10:45;8.00;62.70
68719;DHT22;55696;52.138;5.444;2023-04-06T02:13:22;7.90;63.00
68719;DHT22;55696;52.138;5.444;2023-04-06T02:15:51;8.00;63.00
68719;DHT22;55696;52.138;5.444;2023-04-06T02:18:20;8.00;62.80
68719;DHT22;55696;52.138;5.444;2023-04-06T02:20:47;8.00;62.90
68719;DHT22;55696;52.138;5.444;2023-04-06T02:23:13;8.10;63.00
68719;DHT22;55696;52.138;5.444;2023-04-06T02:25:40;8.10;63.00
68719;DHT22;55696;52.138;5.444;2023-04-06T02:28:08;8.10;63.00
68719;DHT22;55696;52.138;5.444;2023-04-06T02:30:34;8.10;62.70
68719;DHT22;55696;52.138;5.444;2023-04-06T02:33:01;8.10;62.60
68719;DHT22;55696;52.138;5.444;2023-04-06T02:35:37;8.20;63.10
68719;DHT22;55696;52.138;5.444;2023-04-06T02:38:03;8.20;62.50
68719;DHT22;55696;52.138;5.444;2023-04-06T02:40:30;8.10;62.40
68719;DHT22;55696;52.138;5.444;2023-04-06T02:43:03;8.10;62.50
68719;DHT22;55696;52.138;5.444;2023-04-06T02:45:31;8.10;62.40
68719;DHT22;55696;52.138;5.444;2023-04-06T02:48:00;8.10;62.40
68719;DHT22;55696;52.138;5.444;2023-04-06T02:50:27;8.10;62.40
68719;DHT22;55696;52.138;5.444;2023-04-06T02:52:59;8.20;62.30
68719;DHT22;55696;52.138;5.444;2023-04-06T02:55:26;8.30;62.40
68719;DHT22;55696;52.138;5.444;2023-04-06T02:57:53;8.30;62.40
68719;DHT22;55696;52.138;5.444;2023-04-06T03:00:25;8.30;62.40
68719;DHT22;55696;52.138;5.444;2023-04-06T03:02:52;8.40;62.20
68719;DHT22;55696;52.138;5.444;2023-04-06T03:05:18;8.40;62.10
68719;DHT22;55696;52.138;5.444;2023-04-06T03:07:46;8.40;62.00
68719;DHT22;55696;52.138;5.444;2023-04-06T03:10:23;8.40;62.00
68719;DHT22;55696;52.138;5.444;2023-04-06T03:12:50;8.40;61.90
68719;DHT22;55696;52.138;5.444;2023-04-06T03:15:23;8.40;61.80
68719;DHT22;55696;52.138;5.444;2023-04-06T03:17:55;8.40;61.60
68719;DHT22;55696;52.138;5.444;2023-04-06T03:20:32;8.50;61.50
68719;DHT22;55696;52.138;5.444;2023-04-06T03:22:59;8.50;61.40
68719;DHT22;55696;52.138;5.444;2023-04-06T03:25:29;8.50;61.40
68719;DHT22;55696;52.138;5.444;2023-04-06T03:28:03;8.50;60.90
68719;DHT22;55696;52.138;5.444;2023-04-06T03:30:32;8.60;61.10
68719;DHT22;55696;52.138;5.444;2023-04-06T03:32:58;8.60;60.70
68719;DHT22;55696;52.138;5.444;2023-04-06T03:35:28;8.60;60.60
68719;DHT22;55696;52.138;5.444;2023-04-06T03:37:56;8.60;60.40
68719;DHT22;55696;52.138;5.444;2023-04-06T03:40:24;8.60;60.30
68719;DHT22;55696;52.138;5.444;2023-04-06T03:42:51;8.60;60.40
68719;DHT22;55696;52.138;5.444;2023-04-06T03:45:18;8.70;60.30
68719;DHT22;55696;52.138;5.444;2023-04-06T03:47:48;8.70;60.10
68719;DHT22;55696;52.138;5.444;2023-04-06T03:50:16;8.70;60.00
68719;DHT22;55696;52.138;5.444;2023-04-06T03:52:43;8.70;60.10
68719;DHT22;55696;52.138;5.444;2023-04-06T03:55:10;8.70;59.80
68719;DHT22;55696;52.138;5.444;2023-04-06T03:57:37;8.70;59.70
68719;DHT22;55696;52.138;5.444;2023-04-06T04:00:04;8.60;59.30
68719;DHT22;55696;52.138;5.444;2023-04-06T04:02:38;8.80;59.60
68719;DHT22;55696;52.138;5.444;2023-04-06T04:05:05;8.70;59.20
68719;DHT22;55696;52.138;5.444;2023-04-06T04:07:32;8.70;59.20
68719;DHT22;55696;52.138;5.444;2023-04-06T04:09:59;8.70;58.70
68719;DHT22;55696;52.138;5.444;2023-04-06T04:12:26;8.60;58.20
68719;DHT22;55696;52.138;5.444;2023-04-06T04:14:53;8.70;58.40
68719;DHT22;55696;52.138;5.444;2023-04-06T04:17:21;8.70;58.30
68719;DHT22;55696;52.138;5.444;2023-04-06T04:19:48;8.70;58.20
68719;DHT22;55696;52.138;5.444;2023-04-06T04:22:15;8.70;58.10
68719;DHT22;55696;52.138;5.444;2023-04-06T04:24:42;8.70;58.10
68719;DHT22;55696;52.138;5.444;2023-04-06T04:27:09;8.60;58.00
68719;DHT22;55696;52.138;5.444;2023-04-06T04:29:37;8.60;57.80
68719;DHT22;55696;52.138;5.444;2023-04-06T04:32:07;8.50;58.70
68719;DHT22;55696;52.138;5.444;2023-04-06T04:34:35;8.60;57.80
68719;DHT22;55696;52.138;5.444;2023-04-06T04:37:04;8.60;57.80
68719;DHT22;55696;52.138;5.444;2023-04-06T04:39:52;8.60;57.80
68719;DHT22;55696;52.138;5.444;2023-04-06T04:42:19;8.60;58.10
68719;DHT22;55696;52.138;5.444;2023-04-06T04:44:50;8.60;58.30
68719;DHT22;55696;52.138;5.444;2023-04-06T04:47:27;8.60;58.50
68719;DHT22;55696;52.138;5.444;2023-04-06T04:49:54;8.50;58.40
68719;DHT22;55696;52.138;5.444;2023-04-06T04:52:22;8.50;58.80
68719;DHT22;55696;52.138;5.444;2023-04-06T04:55:02;8.50;58.80
68719;DHT22;55696;52.138;5.444;2023-04-06T04:57:30;8.60;59.20
68719;DHT22;55696;52.138;5.444;2023-04-06T04:59:56;8.50;58.70
68719;DHT22;55696;52.138;5.444;2023-04-06T05:02:24;8.60;58.50
68719;DHT22;55696;52.138;5.444;2023-04-06T05:05:17;8.50;58.70
68719;DHT22;55696;52.138;5.444;2023-04-06T05:07:44;8.50;58.80
68719;DHT22;55696;52.138;5.444;2023-04-06T05:10:20;8.60;58.80
68719;DHT22;55696;52.138;5.444;2023-04-06T05:12:53;8.60;58.60
68719;DHT22;55696;52.138;5.444;2023-04-06T05:15:20;8.70;58.50
68719;DHT22;55696;52.138;5.444;2023-04-06T05:17:50;8.60;58.50
68719;DHT22;55696;52.138;5.444;2023-04-06T05:20:22;8.70;58.70
68719;DHT22;55696;52.138;5.444;2023-04-06T05:22:50;8.80;58.20
68719;DHT22;55696;52.138;5.444;2023-04-06T05:25:17;8.70;58.10
68719;DHT22;55696;52.138;5.444;2023-04-06T05:27:46;8.80;58.00
68719;DHT22;55696;52.138;5.444;2023-04-06T05:30:25;8.90;57.80
68719;DHT22;55696;52.138;5.444;2023-04-06T05:32:52;9.30;57.80
68719;DHT22;55696;52.138;5.444;2023-04-06T05:35:21;9.00;57.50
68719;DHT22;55696;52.138;5.444;2023-04-06T05:37:51;9.10;57.10
68719;DHT22;55696;52.138;5.444;2023-04-06T05:40:22;9.10;57.40
68719;DHT22;55696;52.138;5.444;2023-04-06T05:42:49;9.20;57.20
68719;DHT22;55696;52.138;5.444;2023-04-06T05:45:16;9.30;57.10
68719;DHT22;55696;52.138;5.444;2023-04-06T05:47:46;9.30;57.00
68719;DHT22;55696;52.138;5.444;2023-04-06T05:50:24;9.40;57.10
68719;DHT22;55696;52.138;5.444;2023-04-06T05:52:51;9.30;56.90
68719;DHT22;55696;52.138;5.444;2023-04-06T05:55:21;9.40;56.90
68719;DHT22;55696;52.138;5.444;2023-04-06T05:57:54;9.40;56.90
68719;DHT22;55696;52.138;5.444;2023-04-06T06:00:21;9.40;56.70
68719;DHT22;55696;52.138;5.444;2023-04-06T06:02:59;9.40;56.80
68719;DHT22;55696;52.138;5.444;2023-04-06T06:05:28;9.40;56.80
68719;DHT22;55696;52.138;5.444;2023-04-06T06:08:02;9.50;57.40
68719;DHT22;55696;52.138;5.444;2023-04-06T06:10:30;9.50;56.80
68719;DHT22;55696;52.138;5.444;2023-04-06T06:12:56;9.50;56.60
68719;DHT22;55696;52.138;5.444;2023-04-06T06:15:24;9.50;56.50
68719;DHT22;55696;52.138;5.444;2023-04-06T06:17:51;9.50;56.50
68719;DHT22;55696;52.138;5.444;2023-04-06T06:20:18;9.60;56.40
68719;DHT22;55696;52.138;5.444;2023-04-06T06:22:46;9.60;56.50
68719;DHT22;55696;52.138;5.444;2023-04-06T06:25:16;9.70;56.30
68719;DHT22;55696;52.138;5.444;2023-04-06T06:27:45;9.80;56.00
68719;DHT22;55696;52.138;5.444;2023-04-06T06:30:14;9.70;55.90
68719;DHT22;55696;52.138;5.444;2023-04-06T06:32:42;9.20;55.60
68719;DHT22;55696;52.138;5.444;2023-04-06T06:35:09;9.80;55.90
68719;DHT22;55696;52.138;5.444;2023-04-06T06:37:37;9.80;55.30
68719;DHT22;55696;52.138;5.444;2023-04-06T06:40:05;9.90;55.70
68719;DHT22;55696;52.138;5.444;2023-04-06T06:42:34;10.00;56.00
68719;DHT22;55696;52.138;5.444;2023-04-06T06:45:15;10.10;55.30
68719;DHT22;55696;52.138;5.444;2023-04-06T06:47:42;10.20;55.30
68719;DHT22;55696;52.138;5.444;2023-04-06T06:50:10;10.30;55.00
68719;DHT22;55696;52.138;5.444;2023-04-06T06:52:37;10.40;54.70
68719;DHT22;55696;52.138;5.444;2023-04-06T06:55:04;10.50;54.40
68719;DHT22;55696;52.138;5.444;2023-04-06T06:57:31;10.70;54.20
68719;DHT22;55696;52.138;5.444;2023-04-06T06:59:58;10.80;53.90
68719;DHT22;55696;52.138;5.444;2023-04-06T07:02:27;10.90;53.90
68719;DHT22;55696;52.138;5.444;2023-04-06T07:04:54;11.10;53.60
68719;DHT22;55696;52.138;5.444;2023-04-06T07:07:21;11.20;53.10
68719;DHT22;55696;52.138;5.444;2023-04-06T07:09:48;11.30;53.20
68719;DHT22;55696;52.138;5.444;2023-04-06T07:12:15;11.30;52.90
68719;DHT22;55696;52.138;5.444;2023-04-06T07:14:43;11.30;52.80
68719;DHT22;55696;52.138;5.444;2023-04-06T07:17:11;11.30;52.70
68719;DHT22;55696;52.138;5.444;2023-04-06T07:19:38;11.20;52.80
68719;DHT22;55696;52.138;5.444;2023-04-06T07:22:05;11.30;53.00
68719;DHT22;55696;52.138;5.444;2023-04-06T07:24:32;11.20;53.00
68719;DHT22;55696;52.138;5.444;2023-04-06T07:26:59;11.20;53.00
68719;DHT22;55696;52.138;5.444;2023-04-06T07:29:29;11.10;53.30
68719;DHT22;55696;52.138;5.444;2023-04-06T07:31:56;11.40;53.40
68719;DHT22;55696;52.138;5.444;2023-04-06T07:34:23;11.00;53.40
68719;DHT22;55696;52.138;5.444;2023-04-06T07:36:50;11.00;53.20
68719;DHT22;55696;52.138;5.444;2023-04-06T07:39:19;11.10;53.70
68719;DHT22;55696;52.138;5.444;2023-04-06T07:41:47;11.10;53.30
68719;DHT22;55696;52.138;5.444;2023-04-06T07:44:13;11.20;53.10
68719;DHT22;55696;52.138;5.444;2023-04-06T07:46:40;11.30;53.00
68719;DHT22;55696;52.138;5.444;2023-04-06T07:49:07;11.30;53.00
68719;DHT22;55696;52.138;5.444;2023-04-06T07:51:38;11.40;52.90
68719;DHT22;55696;52.138;5.444;2023-04-06T07:54:06;11.40;54.70
68719;DHT22;55696;52.138;5.444;2023-04-06T07:56:33;11.70;53.10
68719;DHT22;55696;52.138;5.444;2023-04-06T07:58:59;12.20;53.00
68719;DHT22;55696;52.138;5.444;2023-04-06T08:01:27;11.70;52.40
68719;DHT22;55696;52.138;5.444;2023-04-06T08:03:55;11.70;53.00
68719;DHT22;55696;52.138;5.444;2023-04-06T08:06:23;11.80;52.40
68719;DHT22;55696;52.138;5.444;2023-04-06T08:08:50;11.90;51.70
68719;DHT22;55696;52.138;5.444;2023-04-06T08:11:16;12.00;51.20
68719;DHT22;55696;52.138;5.444;2023-04-06T08:13:43;12.10;50.70
68719;DHT22;55696;52.138;5.444;2023-04-06T08:16:10;12.40;50.70
68719;DHT22;55696;52.138;5.444;2023-04-06T08:18:37;12.30;50.40
68719;DHT22;55696;52.138;5.444;2023-04-06T08:21:04;12.50;50.30
68719;DHT22;55696;52.138;5.444;2023-04-06T08:23:30;12.60;50.30
68719;DHT22;55696;52.138;5.444;2023-04-06T08:25:57;12.60;50.00
68719;DHT22;55696;52.138;5.444;2023-04-06T08:28:24;12.60;50.00
68719;DHT22;55696;52.138;5.444;2023-04-06T08:30:51;12.60;49.70
68719;DHT22;55696;52.138;5.444;2023-04-06T08:33:17;12.70;49.60
68719;DHT22;55696;52.138;5.444;2023-04-06T08:35:44;12.70;49.40
68719;DHT22;55696;52.138;5.444;2023-04-06T08:38:11;12.70;49.60
68719;DHT22;55696;52.138;5.444;2023-04-06T08:40:39;12.70;49.50
68719;DHT22;55696;52.138;5.444;2023-04-06T08:43:09;12.80;50.30
68719;DHT22;55696;52.138;5.444;2023-04-06T08:45:41;12.90;50.90
68719;DHT22;55696;52.138;5.444;2023-04-06T08:48:08;12.80;50.30
68719;DHT22;55696;52.138;5.444;2023-04-06T08:50:35;12.90;51.20
68719;DHT22;55696;52.138;5.444;2023-04-06T08:53:02;13.00;49.50
68719;DHT22;55696;52.138;5.444;2023-04-06T08:55:29;12.90;49.40
68719;DHT22;55696;52.138;5.444;2023-04-06T08:57:56;13.10;50.10
68719;DHT22;55696;52.138;5.444;2023-04-06T09:00:24;13.10;49.50
68719;DHT22;55696;52.138;5.444;2023-04-06T09:02:53;13.30;50.50
68719;DHT22;55696;52.138;5.444;2023-04-06T09:05:24;13.40;50.50
68719;DHT22;55696;52.138;5.444;2023-04-06T09:07:52;13.50;50.50
68719;DHT22;55696;52.138;5.444;2023-04-06T09:10:19;13.50;48.80
68719;DHT22;55696;52.138;5.444;2023-04-06T09:12:47;13.60;48.60
68719;DHT22;55696;52.138;5.444;2023-04-06T09:15:22;13.60;48.70
68719;DHT22;55696;52.138;5.444;2023-04-06T09:17:50;13.70;50.90
68719;DHT22;55696;52.138;5.444;2023-04-06T09:20:24;13.90;48.70
68719;DHT22;55696;52.138;5.444;2023-04-06T09:22:55;13.90;50.30
68719;DHT22;55696;52.138;5.444;2023-04-06T09:25:23;14.00;48.80
68719;DHT22;55696;52.138;5.444;2023-04-06T09:28:02;14.10;49.00
68719;DHT22;55696;52.138;5.444;2023-04-06T09:30:29;14.00;50.10
68719;DHT22;55696;52.138;5.444;2023-04-06T09:32:57;13.90;48.50
68719;DHT22;55696;52.138;5.444;2023-04-06T09:35:26;14.00;48.80
68719;DHT22;55696;52.138;5.444;2023-04-06T09:37:53;14.00;47.90
68719;DHT22;55696;52.138;5.444;2023-04-06T09:40:20;14.10;48.20
68719;DHT22;55696;52.138;5.444;2023-04-06T09:42:49;14.10;48.10
68719;DHT22;55696;52.138;5.444;2023-04-06T09:45:22;14.20;48.70
68719;DHT22;55696;52.138;5.444;2023-04-06T09:47:49;14.40;47.30
68719;DHT22;55696;52.138;5.444;2023-04-06T09:50:18;14.40;48.40
68719;DHT22;55696;52.138;5.444;2023-04-06T09:52:50;14.60;48.40
68719;DHT22;55696;52.138;5.444;2023-04-06T09:55:22;14.60;49.40
68719;DHT22;55696;52.138;5.444;2023-04-06T09:58:04;14.70;48.70
68719;DHT22;55696;52.138;5.444;2023-04-06T10:00:46;14.80;48.70
68719;DHT22;55696;52.138;5.444;2023-04-06T10:03:20;14.90;47.90
68719;DHT22;55696;52.138;5.444;2023-04-06T10:05:55;15.10;46.10
68719;DHT22;55696;52.138;5.444;2023-04-06T10:08:27;15.20;48.40
68719;DHT22;55696;52.138;5.444;2023-04-06T10:10:58;15.20;47.90
68719;DHT22;55696;52.138;5.444;2023-04-06T10:13:27;15.30;48.50
68719;DHT22;55696;52.138;5.444;2023-04-06T10:15:54;15.40;46.80
68719;DHT22;55696;52.138;5.444;2023-04-06T10:18:21;15.40;48.10
68719;DHT22;55696;52.138;5.444;2023-04-06T10:21:00;15.30;47.50
68719;DHT22;55696;52.138;5.444;2023-04-06T10:23:36;15.30;49.60
68719;DHT22;55696;52.138;5.444;2023-04-06T10:26:03;15.70;49.70
68719;DHT22;55696;52.138;5.444;2023-04-06T10:28:32;15.50;47.60
68719;DHT22;55696;52.138;5.444;2023-04-06T10:31:00;15.50;49.50
68719;DHT22;55696;52.138;5.444;2023-04-06T10:33:28;15.60;48.50
68719;DHT22;55696;52.138;5.444;2023-04-06T10:35:55;15.50;48.10
68719;DHT22;55696;52.138;5.444;2023-04-06T10:38:37;15.50;47.90
68719;DHT22;55696;52.138;5.444;2023-04-06T10:41:11;15.30;51.90
68719;DHT22;55696;52.138;5.444;2023-04-06T10:43:40;16.30;51.50
68719;DHT22;55696;52.138;5.444;2023-04-06T10:46:08;15.10;50.80
68719;DHT22;55696;52.138;5.444;2023-04-06T10:48:40;14.90;50.80
68719;DHT22;55696;52.138;5.444;2023-04-06T10:53:36;14.80;52.60
68719;DHT22;55696;52.138;5.444;2023-04-06T10:56:12;15.30;52.30
68719;DHT22;55696;52.138;5.444;2023-04-06T10:58:49;14.80;54.30
68719;DHT22;55696;52.138;5.444;2023-04-06T11:01:18;15.30;55.30
68719;DHT22;55696;52.138;5.444;2023-04-06T11:03:53;14.60;54.10
68719;DHT22;55696;52.138;5.444;2023-04-06T11:06:25;14.60;55.00
68719;DHT22;55696;52.138;5.444;2023-04-06T11:08:53;14.40;55.10
68719;DHT22;55696;52.138;5.444;2023-04-06T11:11:22;14.10;55.70
68719;DHT22;55696;52.138;5.444;2023-04-06T11:13:51;14.10;56.90
68719;DHT22;55696;52.138;5.444;2023-04-06T11:16:21;14.20;57.30
68719;DHT22;55696;52.138;5.444;2023-04-06T11:19:02;14.00;57.60
68719;DHT22;55696;52.138;5.444;2023-04-06T11:21:42;14.00;58.40
68719;DHT22;55696;52.138;5.444;2023-04-06T11:24:22;13.90;59.60
68719;DHT22;55696;52.138;5.444;2023-04-06T11:26:55;13.90;59.00
68719;DHT22;55696;52.138;5.444;2023-04-06T11:29:29;13.80;59.80
68719;DHT22;55696;52.138;5.444;2023-04-06T11:32:04;13.80;60.50
68719;DHT22;55696;52.138;5.444;2023-04-06T11:34:36;14.00;59.90
68719;DHT22;55696;52.138;5.444;2023-04-06T11:37:09;14.00;60.10
68719;DHT22;55696;52.138;5.444;2023-04-06T11:39:47;14.00;60.30
68719;DHT22;55696;52.138;5.444;2023-04-06T11:42:24;14.00;60.00
68719;DHT22;55696;52.138;5.444;2023-04-06T11:44:54;13.90;60.80
68719;DHT22;55696;52.138;5.444;2023-04-06T11:47:32;13.80;60.30
68719;DHT22;55696;52.138;5.444;2023-04-06T11:52:34;13.80;61.40
68719;DHT22;55696;52.138;5.444;2023-04-06T11:55:17;13.70;59.50
68719;DHT22;55696;52.138;5.444;2023-04-06T11:57:44;13.80;61.30
68719;DHT22;55696;52.138;5.444;2023-04-06T12:00:12;13.80;59.90
68719;DHT22;55696;52.138;5.444;2023-04-06T12:02:39;13.80;60.00
68719;DHT22;55696;52.138;5.444;2023-04-06T12:05:06;13.60;60.30
68719;DHT22;55696;52.138;5.444;2023-04-06T12:07:34;13.80;60.20
68719;DHT22;55696;52.138;5.444;2023-04-06T12:10:02;13.70;59.70
68719;DHT22;55696;52.138;5.444;2023-04-06T12:12:29;13.90;60.50
68719;DHT22;55696;52.138;5.444;2023-04-06T12:14:56;13.90;60.40
68719;DHT22;55696;52.138;5.444;2023-04-06T12:17:23;13.80;60.20
68719;DHT22;55696;52.138;5.444;2023-04-06T12:19:50;13.80;60.10
68719;DHT22;55696;52.138;5.444;2023-04-06T12:22:17;13.70;60.40
68719;DHT22;55696;52.138;5.444;2023-04-06T12:24:44;13.70;60.90
68719;DHT22;55696;52.138;5.444;2023-04-06T12:27:11;13.70;60.50
68719;DHT22;55696;52.138;5.444;2023-04-06T12:29:38;13.80;60.50
68719;DHT22;55696;52.138;5.444;2023-04-06T12:32:05;13.80;60.60
68719;DHT22;55696;52.138;5.444;2023-04-06T12:34:32;13.70;60.20
68719;DHT22;55696;52.138;5.444;2023-04-06T12:36:59;13.70;60.50
68719;DHT22;55696;52.138;5.444;2023-04-06T12:39:27;13.70;60.90
68719;DHT22;55696;52.138;5.444;2023-04-06T12:41:54;13.60;61.80
68719;DHT22;55696;52.138;5.444;2023-04-06T12:44:22;13.60;60.80
68719;DHT22;55696;52.138;5.444;2023-04-06T12:46:52;13.50;61.00
68719;DHT22;55696;52.138;5.444;2023-04-06T12:49:19;13.50;61.50
68719;DHT22;55696;52.138;5.444;2023-04-06T12:51:46;13.40;61.50
68719;DHT22;55696;52.138;5.444;2023-04-06T12:54:12;13.30;61.90
68719;DHT22;55696;52.138;5.444;2023-04-06T12:56:39;14.00;62.70
68719;DHT22;55696;52.138;5.444;2023-04-06T12:59:06;13.20;62.70
68719;DHT22;55696;52.138;5.444;2023-04-06T13:01:33;13.10;62.70
68719;DHT22;55696;52.138;5.444;2023-04-06T13:03:59;13.10;62.70
68719;DHT22;55696;52.138;5.444;2023-04-06T13:06:27;13.20;62.50
68719;DHT22;55696;52.138;5.444;2023-04-06T13:08:55;13.40;62.50
68719;DHT22;55696;52.138;5.444;2023-04-06T13:11:22;13.30;62.90
68719;DHT22;55696;52.138;5.444;2023-04-06T13:13:53;13.20;62.60
68719;DHT22;55696;52.138;5.444;2023-04-06T13:16:20;13.30;62.60
68719;DHT22;55696;52.138;5.444;2023-04-06T13:18:47;13.20;62.90
68719;DHT22;55696;52.138;5.444;2023-04-06T13:21:16;13.10;62.80
68719;DHT22;55696;52.138;5.444;2023-04-06T13:23:43;13.10;63.50
68719;DHT22;55696;52.138;5.444;2023-04-06T13:26:10;13.20;63.20
68719;DHT22;55696;52.138;5.444;2023-04-06T13:28:37;13.10;63.30
68719;DHT22;55696;52.138;5.444;2023-04-06T13:31:07;13.00;62.80
68719;DHT22;55696;52.138;5.444;2023-04-06T13:33:34;13.00;63.20
68719;DHT22;55696;52.138;5.444;2023-04-06T13:36:02;13.60;64.20
68719;DHT22;55696;52.138;5.444;2023-04-06T13:38:29;12.90;64.40
68719;DHT22;55696;52.138;5.444;2023-04-06T13:40:56;12.80;64.70
68719;DHT22;55696;52.138;5.444;2023-04-06T13:43:23;12.80;64.30
68719;DHT22;55696;52.138;5.444;2023-04-06T13:45:53;12.60;64.40
68719;DHT22;55696;52.138;5.444;2023-04-06T13:48:21;12.60;65.50
68719;DHT22;55696;52.138;5.444;2023-04-06T13:50:48;12.70;65.30
68719;DHT22;55696;52.138;5.444;2023-04-06T13:53:15;12.60;65.10
68719;DHT22;55696;52.138;5.444;2023-04-06T13:55:42;12.60;65.40
68719;DHT22;55696;52.138;5.444;2023-04-06T13:58:09;12.50;65.70
68719;DHT22;55696;52.138;5.444;2023-04-06T14:00:36;12.50;65.70
68719;DHT22;55696;52.138;5.444;2023-04-06T14:03:03;12.50;66.20
68719;DHT22;55696;52.138;5.444;2023-04-06T14:05:32;12.40;66.30
68719;DHT22;55696;52.138;5.444;2023-04-06T14:07:59;12.40;67.30
68719;DHT22;55696;52.138;5.444;2023-04-06T14:10:25;12.40;66.40
68719;DHT22;55696;52.138;5.444;2023-04-06T14:12:54;12.40;66.60
68719;DHT22;55696;52.138;5.444;2023-04-06T14:15:21;12.40;66.50
68719;DHT22;55696;52.138;5.444;2023-04-06T14:17:49;12.50;66.80
68719;DHT22;55696;52.138;5.444;2023-04-06T14:20:15;12.40;66.80
68719;DHT22;55696;52.138;5.444;2023-04-06T14:22:42;12.50;67.10
68719;DHT22;55696;52.138;5.444;2023-04-06T14:25:10;12.60;66.90
68719;DHT22;55696;52.138;5.444;2023-04-06T14:27:39;12.60;67.00
68719;DHT22;55696;52.138;5.444;2023-04-06T14:30:07;12.60;66.80
68719;DHT22;55696;52.138;5.444;2023-04-06T14:32:34;12.50;67.20
68719;DHT22;55696;52.138;5.444;2023-04-06T14:35:04;12.40;66.80
68719;DHT22;55696;52.138;5.444;2023-04-06T14:37:33;12.50;67.80
68719;DHT22;55696;52.138;5.444;2023-04-06T14:40:00;12.30;67.40
68719;DHT22;55696;52.138;5.444;2023-04-06T14:42:26;12.40;67.50
68719;DHT22;55696;52.138;5.444;2023-04-06T14:44:53;12.40;67.60
68719;DHT22;55696;52.138;5.444;2023-04-06T14:47:20;12.30;67.60
68719;DHT22;55696;52.138;5.444;2023-04-06T14:49:50;12.40;67.70
68719;DHT22;55696;52.138;5.444;2023-04-06T14:52:17;12.40;69.20
68719;DHT22;55696;52.138;5.444;2023-04-06T14:54:44;12.30;67.50
68719;DHT22;55696;52.138;5.444;2023-04-06T14:57:11;12.40;67.60
68719;DHT22;55696;52.138;5.444;2023-04-06T14:59:38;12.60;67.60
68719;DHT22;55696;52.138;5.444;2023-04-06T15:02:06;12.50;67.70
68719;DHT22;55696;52.138;5.444;2023-04-06T15:04:36;12.40;68.30
68719;DHT22;55696;52.138;5.444;2023-04-06T15:07:03;12.30;70.00
68719;DHT22;55696;52.138;5.444;2023-04-06T15:09:30;12.90;68.60
68719;DHT22;55696;52.138;5.444;2023-04-06T15:11:57;12.20;68.30
68719;DHT22;55696;52.138;5.444;2023-04-06T15:14:24;12.10;68.80
68719;DHT22;55696;52.138;5.444;2023-04-06T15:16:51;12.10;69.10
68719;DHT22;55696;52.138;5.444;2023-04-06T15:19:18;12.10;68.90
68719;DHT22;55696;52.138;5.444;2023-04-06T15:21:45;12.20;68.90
68719;DHT22;55696;52.138;5.444;2023-04-06T15:24:12;12.00;68.80
68719;DHT22;55696;52.138;5.444;2023-04-06T15:26:38;12.10;69.00
68719;DHT22;55696;52.138;5.444;2023-04-06T15:29:05;12.10;69.20
68719;DHT22;55696;52.138;5.444;2023-04-06T15:31:32;12.10;69.20
68719;DHT22;55696;52.138;5.444;2023-04-06T15:34:05;12.20;69.30
68719;DHT22;55696;52.138;5.444;2023-04-06T15:36:34;12.20;69.80
68719;DHT22;55696;52.138;5.444;2023-04-06T15:39:01;12.20;69.50
68719;DHT22;55696;52.138;5.444;2023-04-06T15:41:29;12.20;69.70
68719;DHT22;55696;52.138;5.444;2023-04-06T15:43:56;12.30;69.50
68719;DHT22;55696;52.138;5.444;2023-04-06T15:46:23;11.80;69.10
68719;DHT22;55696;52.138;5.444;2023-04-06T15:48:50;12.30;69.60
68719;DHT22;55696;52.138;5.444;2023-04-06T15:51:16;12.10;69.60
68719;DHT22;55696;52.138;5.444;2023-04-06T15:53:44;12.10;70.40